Time;durP1;ratioP1;P1;durP2;ratioP2;P2;SDS_P1;SDS_P2;PMS_P1;PMS_P2;Temp;Humidity;BMP_temperature;BMP_pressure;BME280_temperature;BME280_humidity;BME280_pressure;Samples;Min_cycle;Max_cycle;Signal;HPM_P1;HPM_P2
2022/05/30 00:01:50;;;;;;;7.83;1.43;;;10.90;1.00;;;;;;5053226;28;20186;-74
2022/05/30 00:04:16;;;;;;;4.23;1.33;;;10.90;1.00;;;;;;5053168;28;20182;-74
2022/05/30 00:06:41;;;;;;;7.13;1.37;;;10.90;1.00;;;;;;5053121;28;20221;-74
2022/05/30 00:09:08;;;;;;;8.23;1.20;;;10.90;1.00;;;;;;5051774;28;20199;-74
2022/05/30 00:11:34;;;;;;;5.80;1.13;;;10.90;40.30;;;;;;5053075;28;20242;-74
2022/05/30 00:14:00;;;;;;;6.43;1.30;;;10.90;99.90;;;;;;5053655;28;20549;-74
2022/05/30 00:16:26;;;;;;;7.10;1.13;;;10.90;1.00;;;;;;5051747;28;20179;-74
2022/05/30 00:18:52;;;;;;;4.43;1.17;;;10.90;1.00;;;;;;5051597;28;20199;-74
2022/05/30 00:21:19;;;;;;;2.93;1.10;;;10.90;1.00;;;;;;5053068;28;20185;-74
2022/05/30 00:23:45;;;;;;;6.50;1.27;;;10.90;99.90;;;;;;5052950;28;20167;-74
2022/05/30 00:26:10;;;;;;;4.40;1.07;;;10.90;99.90;;;;;;5052120;28;20186;-74
2022/05/30 00:28:36;;;;;;;2.83;1.03;;;10.80;99.90;;;;;;5051394;28;20215;-74
2022/05/30 00:31:03;;;;;;;5.37;1.23;;;10.90;99.90;;;;;;5052815;28;20176;-74
2022/05/30 00:33:30;;;;;;;6.67;1.23;;;10.90;99.90;;;;;;5051614;28;20174;-74
2022/05/30 00:35:56;;;;;;;5.53;1.60;;;10.90;99.90;;;;;;5051577;28;20183;-74
2022/05/30 00:38:21;;;;;;;3.97;1.20;;;10.80;99.90;;;;;;5052759;28;20191;-74
2022/05/30 00:40:47;;;;;;;6.90;2.07;;;10.80;99.90;;;;;;5052748;28;20179;-74
2022/05/30 00:43:25;;;;;;;5.40;1.40;;;10.70;1.00;;;;;;5051507;28;20615;-74
2022/05/30 00:45:53;;;;;;;4.93;1.20;;;10.80;1.00;;;;;;5053000;28;20665;-74
2022/05/30 00:48:21;;;;;;;4.73;1.23;;;10.70;1.00;;;;;;5052617;28;20195;-74
2022/05/30 00:50:51;;;;;;;8.47;1.60;;;10.70;1.00;;;;;;5052589;28;20638;-74
2022/05/30 00:53:17;;;;;;;4.50;1.10;;;10.70;9.80;;;;;;5053241;28;20584;-74
2022/05/30 00:55:43;;;;;;;9.30;1.67;;;10.70;17.80;;;;;;5052612;28;20197;-74
2022/05/30 00:58:11;;;;;;;6.27;1.30;;;10.70;1.00;;;;;;5051284;28;20246;-75
2022/05/30 01:00:37;;;;;;;8.77;1.63;;;10.70;53.20;;;;;;5052614;28;20172;-74
2022/05/30 01:08:32;;;;;;;4.10;1.30;;;10.60;99.90;;;;;;5052626;28;20257;-74
2022/05/30 01:10:58;;;;;;;3.90;1.20;;;10.60;99.90;;;;;;5052515;28;20186;-74
2022/05/30 01:13:27;;;;;;;4.37;1.30;;;10.60;99.90;;;;;;5052779;28;20532;-74
2022/05/30 01:15:53;;;;;;;6.73;1.70;;;10.60;99.90;;;;;;5052469;28;20270;-74
2022/05/30 01:18:25;;;;;;;7.03;1.40;;;10.60;99.90;;;;;;5051108;28;20192;-75
2022/05/30 01:21:11;;;;;;;3.57;1.00;;;10.60;99.90;;;;;;5052849;28;20403;-75
2022/05/30 01:23:58;;;;;;;5.37;1.27;;;10.60;99.90;;;;;;5052683;28;20155;-74
2022/05/30 01:26:35;;;;;;;4.07;1.37;;;10.60;99.90;;;;;;5052616;28;20155;-74
2022/05/30 01:29:27;;;;;;;5.90;1.90;;;10.60;99.90;;;;;;5052299;28;20221;-74
2022/05/30 01:31:56;;;;;;;4.80;1.50;;;10.60;99.90;;;;;;5042988;28;20552;-74
2022/05/30 01:34:27;;;;;;;10.27;1.40;;;10.60;99.90;;;;;;5051016;28;20267;-74
2022/05/30 01:36:53;;;;;;;6.90;2.30;;;10.60;99.90;;;;;;5051945;28;20200;-72
2022/05/30 01:39:19;;;;;;;4.70;1.23;;;10.60;99.90;;;;;;5056253;28;20203;-74
2022/05/30 01:41:45;;;;;;;5.10;1.23;;;10.60;99.90;;;;;;5055905;28;20186;-74
2022/05/30 01:44:11;;;;;;;5.77;1.20;;;10.50;99.90;;;;;;5055788;28;20171;-74
2022/05/30 01:46:36;;;;;;;4.77;1.30;;;10.60;99.90;;;;;;5054522;28;20222;-74
2022/05/30 01:49:03;;;;;;;5.30;1.40;;;10.60;99.90;;;;;;5055575;28;20211;-74
2022/05/30 01:51:29;;;;;;;5.47;1.40;;;10.50;99.90;;;;;;5055609;28;20176;-74
2022/05/30 01:53:54;;;;;;;4.37;1.30;;;10.50;99.90;;;;;;5055576;28;20720;-74
2022/05/30 01:56:20;;;;;;;4.43;1.10;;;10.60;99.90;;;;;;5054296;28;20669;-74
2022/05/30 01:58:46;;;;;;;6.77;2.07;;;10.50;99.90;;;;;;5055450;28;20199;-74
2022/05/30 02:01:26;;;;;;;6.67;1.30;;;10.50;99.90;;;;;;5055491;28;20224;-74
2022/05/30 02:03:53;;;;;;;5.47;1.40;;;10.50;99.90;;;;;;5055410;28;20183;-74
2022/05/30 02:06:20;;;;;;;4.53;1.27;;;10.50;99.90;;;;;;5055330;28;20164;-74
2022/05/30 02:08:47;;;;;;;6.60;1.20;;;10.50;99.90;;;;;;5055151;28;20211;-74
2022/05/30 02:11:14;;;;;;;7.63;1.60;;;10.50;99.90;;;;;;5054053;28;20167;-74
2022/05/30 02:13:39;;;;;;;9.77;1.67;;;10.50;99.90;;;;;;5053953;28;20653;-74
2022/05/30 02:18:51;;;;;;;7.00;1.50;;;10.50;99.90;;;;;;5055066;28;20600;-73
2022/05/30 02:21:17;;;;;;;5.67;1.43;;;10.40;99.90;;;;;;5053781;28;20266;-74
2022/05/30 02:23:43;;;;;;;5.50;1.70;;;10.40;99.90;;;;;;5055354;28;20207;-74
2022/05/30 02:26:09;;;;;;;4.50;1.37;;;10.40;99.90;;;;;;5054049;28;20656;-74
2022/05/30 02:28:35;;;;;;;5.63;1.83;;;10.40;99.90;;;;;;5053483;28;20212;-75
2022/05/30 02:31:01;;;;;;;2.87;1.33;;;10.40;99.90;;;;;;5054917;28;20649;-74
2022/05/30 02:38:55;;;;;;;6.33;1.47;;;10.30;99.90;;;;;;5054944;28;20316;-74
2022/05/30 02:41:20;;;;;;;7.27;1.80;;;10.20;99.90;;;;;;5054901;28;20183;-74
2022/05/30 02:43:46;;;;;;;3.50;1.23;;;10.20;99.90;;;;;;5054724;28;20172;-74
2022/05/30 02:46:12;;;;;;;7.87;1.30;;;10.20;99.90;;;;;;5054672;28;20305;-74
2022/05/30 02:48:38;;;;;;;6.50;1.30;;;10.20;99.90;;;;;;5052149;28;20214;-74
2022/05/30 02:51:03;;;;;;;9.30;1.47;;;10.20;99.90;;;;;;5053772;28;20168;-74
2022/05/30 02:53:29;;;;;;;3.83;1.50;;;10.10;99.90;;;;;;5054557;28;20167;-74
2022/05/30 02:55:55;;;;;;;4.53;1.47;;;10.10;99.90;;;;;;5054394;28;20172;-74
2022/05/30 02:58:20;;;;;;;5.37;1.20;;;10.10;99.90;;;;;;5054401;28;20195;-74
2022/05/30 03:00:46;;;;;;;6.17;1.27;;;10.10;92.20;;;;;;5054324;28;20219;-74
2022/05/30 03:03:11;;;;;;;5.60;1.47;;;10.10;99.90;;;;;;5052969;28;20640;-74
2022/05/30 03:05:38;;;;;;;6.63;1.40;;;10.10;49.30;;;;;;5054520;28;20183;-74
2022/05/30 03:08:06;;;;;;;8.70;1.63;;;10.00;12.10;;;;;;5054326;28;20176;-74
2022/05/30 03:10:32;;;;;;;3.57;1.30;;;10.10;1.00;;;;;;5054093;28;20172;-73
2022/05/30 03:12:57;;;;;;;4.60;1.33;;;10.00;99.90;;;;;;5054119;28;20203;-74
2022/05/30 03:15:23;;;;;;;7.87;1.80;;;10.00;99.90;;;;;;5053051;28;20168;-74
2022/05/30 03:17:51;;;;;;;3.97;1.00;;;10.00;99.90;;;;;;5069288;28;20175;-75
2022/05/30 03:20:17;;;;;;;3.47;1.30;;;9.90;40.60;;;;;;5052774;28;20190;-74
2022/05/30 03:22:43;;;;;;;4.87;1.70;;;10.00;25.90;;;;;;5054211;28;20182;-73
2022/05/30 03:25:09;;;;;;;4.13;1.40;;;9.90;1.00;;;;;;5053865;28;20173;-72
2022/05/30 03:27:35;;;;;;;6.03;1.53;;;10.00;99.90;;;;;;5052488;28;20199;-74
2022/05/30 03:30:00;;;;;;;7.67;1.50;;;10.00;99.90;;;;;;5052457;28;20213;-74
2022/05/30 03:32:26;;;;;;;6.00;1.37;;;10.00;99.90;;;;;;5053737;28;20174;-74
2022/05/30 03:34:51;;;;;;;4.30;1.43;;;9.90;99.90;;;;;;5053679;28;20176;-74
2022/05/30 03:37:17;;;;;;;10.30;1.40;;;9.90;99.90;;;;;;5053910;28;20172;-74
2022/05/30 03:39:42;;;;;;;8.27;1.33;;;9.90;99.90;;;;;;5052254;28;20254;-74
2022/05/30 03:42:13;;;;;;;8.87;1.30;;;9.90;99.90;;;;;;5053558;28;20263;-74
2022/05/30 03:44:39;;;;;;;8.20;1.63;;;9.90;99.90;;;;;;5052246;28;20258;-74
2022/05/30 03:47:05;;;;;;;8.93;1.53;;;9.90;99.90;;;;;;5052207;28;20179;-74
2022/05/30 03:49:30;;;;;;;4.67;1.30;;;9.80;99.90;;;;;;5068663;28;20322;-74
2022/05/30 03:51:58;;;;;;;7.20;1.43;;;9.80;99.90;;;;;;5053363;28;20237;-74
2022/05/30 03:54:23;;;;;;;5.97;1.30;;;9.90;99.90;;;;;;5053679;28;20170;-74
2022/05/30 03:56:49;;;;;;;3.20;1.00;;;9.80;99.90;;;;;;5053332;28;20171;-74
2022/05/30 03:59:14;;;;;;;9.43;1.67;;;9.90;99.90;;;;;;5053494;28;20231;-74
2022/05/30 04:01:40;;;;;;;9.37;1.83;;;9.90;99.90;;;;;;5053412;28;20203;-74
2022/05/30 04:04:06;;;;;;;6.00;1.40;;;9.90;99.90;;;;;;5053147;28;20183;-74
2022/05/30 04:06:31;;;;;;;6.80;1.93;;;9.90;99.90;;;;;;5051932;28;20183;-74
2022/05/30 04:08:57;;;;;;;5.70;1.67;;;9.80;99.90;;;;;;5053255;28;20703;-74
2022/05/30 04:11:22;;;;;;;4.43;1.50;;;9.90;99.90;;;;;;5053037;28;20217;-74
2022/05/30 04:13:49;;;;;;;5.70;1.67;;;9.90;99.90;;;;;;5053112;28;20168;-74
2022/05/30 04:16:14;;;;;;;3.47;1.37;;;9.90;99.90;;;;;;5053079;28;20695;-74
2022/05/30 04:18:41;;;;;;;9.07;1.77;;;9.90;99.90;;;;;;5053012;28;20191;-74
2022/05/30 04:21:08;;;;;;;10.43;1.97;;;9.90;99.90;;;;;;5053276;28;20254;-74
2022/05/30 04:23:34;;;;;;;7.43;1.57;;;9.90;99.90;;;;;;5052935;28;20180;-74
2022/05/30 04:25:59;;;;;;;6.17;1.60;;;9.90;99.90;;;;;;5052916;28;20175;-74
2022/05/30 04:28:25;;;;;;;7.03;1.80;;;9.90;99.90;;;;;;5068174;28;20250;-74
2022/05/30 04:30:51;;;;;;;6.37;1.53;;;9.90;99.90;;;;;;5053165;28;20652;-74
2022/05/30 04:33:16;;;;;;;9.53;1.83;;;9.90;99.90;;;;;;5046531;28;20180;-74
2022/05/30 04:35:43;;;;;;;7.33;1.63;;;10.00;99.90;;;;;;5041663;28;20176;-74
2022/05/30 04:38:08;;;;;;;8.90;1.73;;;9.90;99.90;;;;;;5041470;28;20214;-75
2022/05/30 04:40:34;;;;;;;7.00;1.80;;;10.00;99.90;;;;;;5037037;28;20172;-74
2022/05/30 04:42:59;;;;;;;4.57;1.50;;;10.00;99.90;;;;;;5032143;28;20172;-74
2022/05/30 04:45:25;;;;;;;8.93;2.13;;;10.10;99.90;;;;;;5032298;28;20226;-74
2022/05/30 04:47:50;;;;;;;10.80;1.97;;;10.10;99.90;;;;;;5030790;28;20196;-74
2022/05/30 04:50:17;;;;;;;6.63;1.80;;;10.10;99.90;;;;;;5031794;28;20220;-73
2022/05/30 04:52:44;;;;;;;9.27;1.60;;;10.20;99.90;;;;;;5031504;28;20267;-72
2022/05/30 04:55:11;;;;;;;3.77;1.60;;;10.20;99.90;;;;;;5032715;28;20263;-72
2022/05/30 04:57:46;;;;;;;15.03;2.07;;;10.20;99.90;;;;;;5031471;28;20689;-73
2022/05/30 05:00:14;;;;;;;8.53;1.60;;;10.30;99.90;;;;;;5032691;28;20206;-73
2022/05/30 05:02:40;;;;;;;6.30;1.57;;;10.30;99.90;;;;;;5032918;28;20255;-74
2022/05/30 05:05:06;;;;;;;12.67;1.53;;;10.40;99.90;;;;;;5032881;28;20608;-74
2022/05/30 05:07:48;;;;;;;8.30;1.93;;;10.40;99.90;;;;;;5032598;28;20280;-74
2022/05/30 05:10:48;;;;;;;6.63;1.50;;;10.50;99.90;;;;;;5031383;28;20200;-73
2022/05/30 05:13:14;;;;;;;8.93;1.90;;;10.50;99.90;;;;;;5021414;28;20199;-74
2022/05/30 05:15:39;;;;;;;4.73;1.77;;;10.50;1.00;;;;;;5036970;28;20173;-73
2022/05/30 05:18:05;;;;;;;12.10;1.93;;;10.50;1.00;;;;;;5036483;28;20572;-74
2022/05/30 05:20:38;;;;;;;13.47;2.17;;;10.50;1.00;;;;;;5036291;28;20165;-73
2022/05/30 05:23:04;;;;;;;7.70;1.83;;;10.50;1.00;;;;;;5036540;28;20156;-74
2022/05/30 05:25:30;;;;;;;9.03;1.83;;;10.50;1.00;;;;;;5036227;28;20267;-73
2022/05/30 05:27:55;;;;;;;8.03;2.00;;;10.50;1.00;;;;;;5034719;28;20241;-74
2022/05/30 05:30:21;;;;;;;9.20;1.80;;;10.60;99.90;;;;;;5034833;28;20193;-74
2022/05/30 05:32:46;;;;;;;4.33;1.90;;;10.60;99.90;;;;;;5034874;28;20765;-74
2022/05/30 05:35:13;;;;;;;5.97;1.70;;;10.60;99.90;;;;;;5035965;28;20177;-73
2022/05/30 05:37:38;;;;;;;6.10;1.73;;;10.60;99.90;;;;;;5034729;28;20169;-74
2022/05/30 05:40:05;;;;;;;13.37;2.23;;;10.60;99.90;;;;;;5035872;28;20279;-74
2022/05/30 05:42:30;;;;;;;8.97;1.97;;;10.70;99.90;;;;;;5034528;28;20176;-74
2022/05/30 05:44:56;;;;;;;4.77;1.90;;;10.70;99.90;;;;;;5034829;28;20223;-74
2022/05/30 05:47:21;;;;;;;13.10;2.00;;;10.70;99.90;;;;;;5035873;28;20259;-74
2022/05/30 05:49:47;;;;;;;10.80;2.00;;;10.70;99.90;;;;;;5035538;28;20204;-73
2022/05/30 05:52:12;;;;;;;6.83;1.97;;;10.70;99.90;;;;;;5035682;28;20558;-74
2022/05/30 05:54:38;;;;;;;9.60;1.93;;;10.70;99.90;;;;;;5035647;28;20169;-73
2022/05/30 05:57:04;;;;;;;10.30;2.30;;;10.80;99.90;;;;;;5035563;28;20672;-74
2022/05/30 05:59:29;;;;;;;12.87;2.00;;;10.80;99.90;;;;;;5035666;28;20189;-74
2022/05/30 06:01:55;;;;;;;10.00;2.10;;;10.80;99.90;;;;;;5035466;28;20673;-74
2022/05/30 06:04:20;;;;;;;7.90;2.50;;;10.80;1.00;;;;;;5035449;28;20231;-74
2022/05/30 06:06:46;;;;;;;8.90;2.20;;;10.80;1.00;;;;;;5034168;28;20172;-73
2022/05/30 06:09:12;;;;;;;6.80;1.90;;;10.80;99.90;;;;;;5035342;28;20278;-74
2022/05/30 06:11:37;;;;;;;8.23;1.73;;;10.80;1.00;;;;;;5035355;28;20214;-73
2022/05/30 06:14:04;;;;;;;7.23;2.00;;;10.90;1.00;;;;;;5035306;28;20195;-74
2022/05/30 06:16:32;;;;;;;5.33;1.53;;;11.00;1.00;;;;;;5033961;28;20263;-73
2022/05/30 06:19:00;;;;;;;10.03;1.67;;;11.00;27.90;;;;;;5035101;28;20291;-73
2022/05/30 06:21:28;;;;;;;6.27;1.80;;;11.10;1.00;;;;;;5035068;28;20183;-74
2022/05/30 06:23:55;;;;;;;5.33;1.73;;;11.20;1.00;;;;;;5035330;28;20259;-74
2022/05/30 06:26:21;;;;;;;8.27;1.93;;;11.20;1.00;;;;;;5033802;28;20696;-73
2022/05/30 06:28:47;;;;;;;5.93;1.83;;;11.20;99.90;;;;;;5034750;28;20216;-73
2022/05/30 06:31:22;;;;;;;7.80;1.80;;;11.30;99.90;;;;;;5035008;28;20230;-73
2022/05/30 06:33:48;;;;;;;5.20;1.73;;;11.30;99.90;;;;;;5035303;28;20239;-74
2022/05/30 06:36:17;;;;;;;8.20;2.73;;;11.40;99.90;;;;;;5034921;28;20314;-73
2022/05/30 06:38:43;;;;;;;9.57;2.10;;;11.40;99.90;;;;;;5034758;28;20211;-73
2022/05/30 06:41:14;;;;;;;5.47;1.90;;;11.50;6.40;;;;;;5034981;28;20646;-73
2022/05/30 06:43:40;;;;;;;8.93;2.10;;;11.50;27.70;;;;;;5035051;28;20223;-73
2022/05/30 06:46:05;;;;;;;10.50;2.13;;;11.50;99.90;;;;;;5034716;28;20172;-73
2022/05/30 06:48:32;;;;;;;8.53;2.30;;;11.40;99.90;;;;;;5034740;28;20235;-72
2022/05/30 06:50:58;;;;;;;8.47;2.30;;;11.40;99.90;;;;;;5033329;28;20175;-73
2022/05/30 06:53:24;;;;;;;7.53;2.03;;;11.40;1.00;;;;;;5033262;28;20176;-73
2022/05/30 06:55:51;;;;;;;10.60;2.60;;;11.50;99.90;;;;;;5034466;28;20696;-73
2022/05/30 06:58:17;;;;;;;9.60;2.20;;;11.70;31.30;;;;;;5034370;28;20189;-74
2022/05/30 07:00:47;;;;;;;9.70;1.97;;;11.60;1.00;;;;;;5034677;28;20167;-72
2022/05/30 07:03:14;;;;;;;11.97;2.23;;;11.70;99.90;;;;;;5034361;28;20180;-73
2022/05/30 07:05:42;;;;;;;7.57;3.00;;;11.80;1.00;;;;;;5034374;28;20594;-73
2022/05/30 07:08:08;;;;;;;9.47;2.80;;;11.80;1.00;;;;;;5034114;28;20172;-74
2022/05/30 07:10:35;;;;;;;10.40;2.73;;;11.90;1.00;;;;;;5034494;28;20651;-73
2022/05/30 07:13:01;;;;;;;12.33;3.30;;;12.00;1.00;;;;;;5034216;28;20161;-73
2022/05/30 07:15:27;;;;;;;11.87;3.83;;;11.90;99.90;;;;;;5034457;28;20176;-73
2022/05/30 07:17:53;;;;;;;9.13;3.47;;;11.90;1.00;;;;;;5032764;28;20168;-75
2022/05/30 07:20:19;;;;;;;9.03;3.77;;;11.90;1.00;;;;;;5034137;28;20549;-74
2022/05/30 07:22:45;;;;;;;12.30;2.93;;;11.90;97.20;;;;;;5034003;28;20219;-74
2022/05/30 07:25:11;;;;;;;18.43;3.13;;;12.00;22.50;;;;;;5032681;28;20260;-73
2022/05/30 07:27:36;;;;;;;9.70;3.13;;;12.00;95.60;;;;;;5033897;28;20199;-74
2022/05/30 07:30:03;;;;;;;13.53;3.70;;;12.00;99.90;;;;;;5034043;28;20212;-74
2022/05/30 07:32:29;;;;;;;11.03;3.30;;;12.00;99.90;;;;;;5033853;28;20196;-74
2022/05/30 07:34:55;;;;;;;11.83;3.57;;;12.10;1.00;;;;;;5033327;28;20635;-74
2022/05/30 07:37:21;;;;;;;8.20;3.17;;;12.10;99.90;;;;;;5033763;28;20171;-74
2022/05/30 07:39:46;;;;;;;12.23;3.70;;;12.10;99.90;;;;;;5033620;28;20275;-74
2022/05/30 07:42:13;;;;;;;8.40;2.60;;;12.10;99.90;;;;;;5032354;28;20585;-74
2022/05/30 07:44:39;;;;;;;8.33;3.07;;;12.20;54.50;;;;;;5033932;28;20194;-74
2022/05/30 07:47:06;;;;;;;6.40;3.40;;;12.20;99.90;;;;;;5033627;28;20199;-74
2022/05/30 07:49:32;;;;;;;10.77;3.43;;;12.20;1.00;;;;;;5033494;28;20204;-73
2022/05/30 07:51:57;;;;;;;10.20;3.60;;;12.30;1.00;;;;;;5033514;28;20168;-73
2022/05/30 07:54:23;;;;;;;10.50;3.90;;;12.40;99.90;;;;;;5032189;28;20229;-74
2022/05/30 07:56:49;;;;;;;7.77;3.33;;;12.50;1.00;;;;;;5033490;28;20168;-74
2022/05/30 07:59:14;;;;;;;10.63;3.70;;;12.50;1.00;;;;;;5032102;28;20261;-74
2022/05/30 08:01:40;;;;;;;13.00;4.03;;;12.60;99.90;;;;;;5033615;28;20571;-74
2022/05/30 08:04:12;;;;;;;8.70;4.00;;;12.50;1.00;;;;;;5032069;28;20728;-73
2022/05/30 08:06:38;;;;;;;12.43;3.63;;;12.50;1.00;;;;;;5033541;28;20577;-74
2022/05/30 08:09:04;;;;;;;14.20;3.53;;;12.50;99.90;;;;;;5033392;28;20638;-74
2022/05/30 08:11:30;;;;;;;9.87;1.93;;;12.40;99.90;;;;;;5033276;28;20175;-72
2022/05/30 08:13:56;;;;;;;6.77;2.00;;;12.30;1.00;;;;;;5033478;28;20255;-74
2022/05/30 08:16:24;;;;;;;6.67;1.90;;;12.10;1.00;;;;;;5033474;28;20223;-74
2022/05/30 08:18:50;;;;;;;7.57;2.10;;;12.00;1.00;;;;;;5033336;28;20192;-74
2022/05/30 08:21:19;;;;;;;6.17;2.07;;;12.00;1.00;;;;;;5033420;28;20214;-74
2022/05/30 08:23:48;;;;;;;3.33;1.80;;;11.90;1.00;;;;;;5033591;28;20229;-73
2022/05/30 08:26:14;;;;;;;5.60;1.93;;;11.90;1.00;;;;;;5032980;28;20176;-74
2022/05/30 08:28:40;;;;;;;5.73;1.57;;;12.00;99.90;;;;;;5033042;28;20208;-74
2022/05/30 08:31:05;;;;;;;4.50;1.60;;;12.10;99.90;;;;;;5031761;28;20665;-73
2022/05/30 08:33:31;;;;;;;5.20;1.93;;;12.10;99.90;;;;;;5033170;28;20164;-73
2022/05/30 08:36:06;;;;;;;3.57;1.10;;;12.30;1.00;;;;;;5031696;28;20262;-74
2022/05/30 08:38:33;;;;;;;5.57;1.70;;;12.40;99.90;;;;;;5033138;28;20195;-74
2022/05/30 08:43:49;;;;;;;7.23;1.47;;;12.70;76.10;;;;;;5033461;28;20182;-73
2022/05/30 08:46:30;;;;;;;4.23;1.17;;;12.90;99.90;;;;;;5032910;28;20218;-74
2022/05/30 08:49:02;;;;;;;6.80;1.93;;;13.10;1.00;;;;;;5035549;28;20288;-74
2022/05/30 08:52:08;;;;;;;5.57;1.30;;;13.30;99.90;;;;;;5037168;28;20256;-74
2022/05/30 08:55:08;;;;;;;6.73;1.90;;;13.40;99.90;;;;;;5036996;28;20176;-74
2022/05/30 08:57:42;;;;;;;5.00;1.67;;;13.50;99.90;;;;;;5037064;28;20156;-74
2022/05/30 09:00:12;;;;;;;6.57;1.90;;;13.40;1.00;;;;;;5036653;28;20187;-74
2022/05/30 09:02:46;;;;;;;6.40;1.93;;;13.40;99.90;;;;;;5035450;28;20183;-74
2022/05/30 09:05:20;;;;;;;7.07;2.07;;;13.40;1.00;;;;;;5035459;28;20187;-74
2022/05/30 09:07:54;;;;;;;8.03;2.13;;;13.50;1.00;;;;;;5035382;28;20188;-73
2022/05/30 09:10:25;;;;;;;6.60;1.60;;;13.50;99.90;;;;;;5036802;28;20200;-74
2022/05/30 09:13:15;;;;;;;4.07;1.67;;;13.60;99.90;;;;;;5036733;28;20172;-74
2022/05/30 09:15:59;;;;;;;5.50;1.60;;;13.60;1.00;;;;;;5035961;28;20180;-74
2022/05/30 09:18:41;;;;;;;5.27;1.40;;;13.70;1.00;;;;;;5036560;28;20184;-74
2022/05/30 09:21:08;;;;;;;5.63;1.40;;;13.70;99.90;;;;;;5036408;28;20618;-74
2022/05/30 09:23:34;;;;;;;2.90;1.23;;;13.70;1.00;;;;;;5036920;28;20251;-74
2022/05/30 09:26:07;;;;;;;9.93;1.80;;;13.60;99.90;;;;;;5034937;28;20204;-74
2022/05/30 09:28:39;;;;;;;6.63;1.87;;;13.60;1.00;;;;;;5035137;28;20576;-74
2022/05/30 09:31:29;;;;;;;2.87;1.00;;;13.60;99.90;;;;;;5036467;28;20153;-74
2022/05/30 09:33:57;;;;;;;5.17;1.20;;;13.40;99.90;;;;;;5036343;28;20157;-74
2022/05/30 09:36:31;;;;;;;3.73;1.43;;;13.50;99.90;;;;;;5036107;28;20181;-74
2022/05/30 09:39:15;;;;;;;4.03;1.00;;;13.30;99.90;;;;;;5034736;28;20197;-74
2022/05/30 09:41:40;;;;;;;4.63;1.67;;;13.30;1.00;;;;;;5036105;28;20172;-73
2022/05/30 09:44:17;;;;;;;6.90;1.20;;;13.40;1.00;;;;;;5036178;28;20168;-74
2022/05/30 09:46:57;;;;;;;3.73;1.27;;;13.50;1.00;;;;;;5035896;28;20168;-74
2022/05/30 09:49:36;;;;;;;4.63;1.33;;;13.50;1.00;;;;;;5035965;28;20208;-74
2022/05/30 09:52:26;;;;;;;6.13;1.70;;;13.50;1.00;;;;;;5036083;28;20188;-74
2022/05/30 09:54:56;;;;;;;10.37;1.80;;;13.40;99.90;;;;;;5034542;28;20700;-74
2022/05/30 09:57:29;;;;;;;4.17;1.50;;;13.50;1.00;;;;;;5034041;28;20176;-74
2022/05/30 10:00:05;;;;;;;9.00;1.70;;;13.40;99.90;;;;;;5035974;28;20263;-74
2022/05/30 10:02:34;;;;;;;6.40;1.60;;;13.40;1.00;;;;;;5035937;28;20191;-73
2022/05/30 10:05:01;;;;;;;11.87;2.43;;;13.50;1.00;;;;;;5035808;28;20169;-73
2022/05/30 10:07:32;;;;;;;4.43;1.47;;;13.40;99.90;;;;;;5034247;28;20181;-74
2022/05/30 10:10:12;;;;;;;6.40;1.53;;;13.50;1.00;;;;;;5035632;28;20291;-73
2022/05/30 10:12:52;;;;;;;2.67;1.27;;;13.60;1.00;;;;;;5035908;28;20188;-74
2022/05/30 10:15:25;;;;;;;7.47;1.80;;;13.50;1.00;;;;;;5034209;28;20161;-74
2022/05/30 10:17:53;;;;;;;5.83;1.43;;;13.50;99.90;;;;;;5035654;28;20152;-74
2022/05/30 10:20:46;;;;;;;4.47;1.27;;;13.50;99.90;;;;;;5033973;28;20264;-75
2022/05/30 10:29:48;;;;;;;8.93;2.50;;;14.00;81.20;;;;;;5035332;28;20688;-72
2022/05/30 10:32:33;;;;;;;9.87;2.37;;;14.10;12.00;;;;;;5035281;28;20160;-72
2022/05/30 10:35:20;;;;;;;8.40;2.57;;;14.10;8.90;;;;;;5035065;28;20306;-74
2022/05/30 10:38:13;;;;;;;7.70;2.60;;;14.30;99.90;;;;;;5034958;28;20168;-73
2022/05/30 10:40:54;;;;;;;6.40;1.97;;;14.40;99.90;;;;;;5074330;23;20229;-74
2022/05/30 10:43:57;;;;;;;5.33;2.33;;;14.40;1.00;;;;;;5083697;28;20182;-74
2022/05/30 10:46:33;;;;;;;7.57;2.10;;;14.20;1.00;;;;;;5082787;28;20224;-74
2022/05/30 10:49:08;;;;;;;7.27;1.93;;;14.20;26.30;;;;;;5084460;28;20269;-74
2022/05/30 10:51:50;;;;;;;5.00;1.73;;;14.30;99.90;;;;;;5083017;28;20224;-74
2022/05/30 10:54:34;;;;;;;6.13;1.87;;;14.50;99.90;;;;;;5084415;28;20158;-74
2022/05/30 10:57:32;;;;;;;7.43;1.93;;;14.50;1.00;;;;;;5082335;28;20155;-74
2022/05/30 11:00:10;;;;;;;4.87;1.70;;;14.50;1.00;;;;;;5081391;28;20163;-74
2022/05/30 11:02:57;;;;;;;4.37;1.57;;;14.40;1.00;;;;;;5083289;28;20167;-73
2022/05/30 11:06:03;;;;;;;5.73;1.97;;;14.50;64.50;;;;;;5084056;28;20167;-74
2022/05/30 11:08:49;;;;;;;4.00;1.57;;;14.60;1.00;;;;;;5049907;28;20183;-73
2022/05/30 11:11:25;;;;;;;3.40;1.40;;;14.60;1.00;;;;;;5081560;28;20195;-73
2022/05/30 11:14:02;;;;;;;2.90;1.47;;;14.40;1.00;;;;;;5083920;28;20224;-73
2022/05/30 11:16:49;;;;;;;3.67;1.30;;;14.50;1.00;;;;;;5084680;28;20155;-73
2022/05/30 11:19:53;;;;;;;4.67;1.17;;;14.40;1.00;;;;;;5084813;28;20155;-74
2022/05/30 11:22:18;;;;;;;3.97;1.00;;;14.40;1.00;;;;;;5073545;28;20211;-73
2022/05/30 11:24:50;;;;;;;4.10;0.83;;;14.20;99.90;;;;;;5082686;28;20285;-73
2022/05/30 11:27:50;;;;;;;3.50;1.33;;;14.20;1.00;;;;;;5083149;28;20246;-74
2022/05/30 11:30:39;;;;;;;4.63;1.30;;;14.10;1.00;;;;;;5085348;28;20211;-74
2022/05/30 11:33:14;;;;;;;1.43;0.77;;;14.20;1.00;;;;;;5087099;28;20166;-74
2022/05/30 11:36:01;;;;;;;2.50;0.70;;;14.40;1.00;;;;;;5085165;28;20178;-74
2022/05/30 11:38:44;;;;;;;3.50;0.80;;;14.40;1.00;;;;;;5086537;28;20162;-74
2022/05/30 11:41:24;;;;;;;3.33;1.20;;;14.50;1.00;;;;;;5086050;28;20754;-74
2022/05/30 11:44:01;;;;;;;2.70;1.40;;;14.40;1.00;;;;;;5086654;28;20155;-74
2022/05/30 11:46:46;;;;;;;4.30;1.20;;;14.60;99.90;;;;;;5086672;28;20167;-74
2022/05/30 11:49:28;;;;;;;6.27;1.30;;;14.60;1.00;;;;;;5085356;28;20191;-74
2022/05/30 11:52:27;;;;;;;3.77;1.00;;;14.60;1.00;;;;;;5086590;28;20186;-75
2022/05/30 11:55:23;;;;;;;2.80;1.40;;;14.80;1.00;;;;;;5086638;28;20738;-74
2022/05/30 11:58:14;;;;;;;3.30;1.17;;;14.90;1.00;;;;;;5085144;28;20175;-74
2022/05/30 12:00:41;;;;;;;6.00;1.37;;;14.90;90.40;;;;;;5086293;28;20198;-75
2022/05/30 12:03:32;;;;;;;5.67;1.30;;;15.00;99.90;;;;;;5084003;28;20179;-74
2022/05/30 12:06:24;;;;;;;9.83;1.63;;;15.10;1.00;;;;;;5085070;28;20531;-74
2022/05/30 12:09:10;;;;;;;3.67;1.63;;;15.30;45.70;;;;;;5082483;28;20187;-74
2022/05/30 12:12:00;;;;;;;9.30;1.73;;;15.40;1.00;;;;;;5082482;28;20223;-74
2022/05/30 12:15:04;;;;;;;5.50;1.77;;;15.40;1.00;;;;;;5083243;28;20528;-74
2022/05/30 12:24:00;;;;;;;7.33;2.10;;;15.40;1.00;;;;;;5083260;28;20204;-74
2022/05/30 12:26:54;;;;;;;5.47;1.67;;;15.40;1.00;;;;;;5082147;28;20162;-74
2022/05/30 12:29:38;;;;;;;5.97;1.77;;;15.40;1.00;;;;;;5082628;28;20211;-74
2022/05/30 12:32:29;;;;;;;2.37;0.90;;;15.30;1.00;;;;;;5083414;28;20191;-74
2022/05/30 12:34:57;;;;;;;2.10;1.37;;;15.30;1.00;;;;;;5078018;28;20190;-74
2022/05/30 12:37:44;;;;;;;6.87;1.53;;;15.20;1.00;;;;;;5083036;28;20677;-74
2022/05/30 12:40:25;;;;;;;2.67;1.50;;;15.20;1.00;;;;;;5082467;28;20166;-73
2022/05/30 12:43:15;;;;;;;7.67;1.87;;;15.30;1.00;;;;;;5081901;28;20625;-74
2022/05/30 12:45:56;;;;;;;3.90;1.50;;;15.40;47.50;;;;;;5083034;28;20576;-74
2022/05/30 12:48:24;;;;;;;6.30;1.90;;;15.50;99.90;;;;;;5079835;28;20497;-74
2022/05/30 12:50:50;;;;;;;4.73;1.60;;;15.60;1.00;;;;;;5082740;28;20437;-74
2022/05/30 12:53:16;;;;;;;7.97;1.70;;;15.60;9.90;;;;;;5082118;28;20186;-74
2022/05/30 12:55:45;;;;;;;5.77;2.10;;;15.70;1.00;;;;;;5082061;28;20178;-74
2022/05/30 12:58:42;;;;;;;6.07;1.50;;;15.50;1.00;;;;;;5082790;28;20259;-74
2022/05/30 13:01:18;;;;;;;7.80;1.70;;;15.60;1.00;;;;;;5053291;28;20238;-74
2022/05/30 13:03:46;;;;;;;8.07;1.50;;;15.40;1.00;;;;;;5082133;28;20180;-74
2022/05/30 13:06:17;;;;;;;6.60;1.33;;;15.30;1.00;;;;;;5085017;28;20220;-74
2022/05/30 13:09:13;;;;;;;2.23;1.00;;;15.40;1.00;;;;;;5084133;28;20202;-74
2022/05/30 13:11:56;;;;;;;3.90;1.30;;;15.40;1.00;;;;;;5083850;28;20195;-74
2022/05/30 13:14:37;;;;;;;3.47;1.33;;;15.40;1.00;;;;;;5085476;28;20159;-74
2022/05/30 13:17:23;;;;;;;2.07;1.20;;;15.40;1.00;;;;;;5076808;28;20202;-76
2022/05/30 13:19:59;;;;;;;5.47;1.40;;;15.40;1.00;;;;;;5075926;28;20702;-74
2022/05/30 13:23:04;;;;;;;5.73;1.73;;;15.50;1.00;;;;;;5077445;28;20162;-74
2022/05/30 13:25:32;;;;;;;3.13;1.30;;;15.20;99.90;;;;;;5031914;28;20250;-75
2022/05/30 13:28:34;;;;;;;6.63;1.83;;;15.20;1.00;;;;;;5033391;28;20264;-74
2022/05/30 13:31:06;;;;;;;6.60;1.93;;;15.40;1.00;;;;;;5054661;28;20572;-74
2022/05/30 13:33:49;;;;;;;4.90;1.30;;;15.30;99.90;;;;;;5075745;28;20179;-75
2022/05/30 13:36:16;;;;;;;5.07;1.40;;;15.20;1.00;;;;;;5079078;28;20151;-75
2022/05/30 13:38:45;;;;;;;3.47;1.30;;;15.30;1.00;;;;;;5078135;28;20706;-75
2022/05/30 13:41:20;;;;;;;5.07;1.10;;;15.20;99.90;;;;;;5079769;28;20218;-74
2022/05/30 13:43:45;;;;;;;3.03;1.10;;;15.20;1.00;;;;;;5077655;28;20162;-74